createdAt,value
2023-01-31T00:01:07.156Z,5.95
2023-01-31T00:03:33.650Z,7.07
2023-01-31T00:06:00.178Z,4.75
2023-01-31T00:08:26.851Z,6.32
2023-01-31T00:10:53.709Z,6.90
2023-01-31T00:13:20.227Z,5.32
2023-01-31T00:15:46.652Z,6.55
2023-01-31T00:18:13.546Z,7.43
2023-01-31T00:20:40.317Z,6.40
2023-01-31T00:23:07.077Z,6.63
2023-01-31T00:25:33.481Z,5.47
2023-01-31T00:27:59.941Z,5.68
2023-01-31T00:30:27.511Z,5.97
2023-01-31T00:32:54.045Z,5.95
2023-01-31T00:35:20.848Z,6.40
2023-01-31T00:37:47.781Z,7.57
2023-01-31T00:40:14.312Z,7.28
2023-01-31T00:42:41.272Z,7.75
2023-01-31T00:45:10.321Z,6.30
2023-01-31T00:47:37.037Z,5.40
2023-01-31T00:50:04.006Z,6.32
2023-01-31T00:52:30.399Z,7.13
2023-01-31T00:54:56.997Z,9.23
2023-01-31T00:57:23.472Z,6.03
2023-01-31T00:59:49.890Z,8.02
2023-01-31T01:02:16.718Z,6.25
2023-01-31T01:04:43.273Z,6.22
2023-01-31T01:07:09.600Z,7.20
2023-01-31T01:09:36.329Z,4.70
2023-01-31T01:12:02.774Z,9.13
2023-01-31T01:14:29.939Z,4.82
2023-01-31T01:16:56.604Z,6.95
2023-01-31T01:19:23.927Z,10.18
2023-01-31T01:21:50.314Z,8.15
2023-01-31T01:24:16.808Z,7.57
2023-01-31T01:26:43.516Z,7.70
2023-01-31T01:29:10.207Z,6.18
2023-01-31T01:31:36.908Z,8.82
2023-01-31T01:34:03.311Z,7.10
2023-01-31T01:36:29.731Z,7.35
2023-01-31T01:38:56.548Z,6.65
2023-01-31T01:41:23.170Z,6.88
2023-01-31T01:43:49.641Z,8.18
2023-01-31T01:46:16.651Z,6.53
2023-01-31T01:48:43.431Z,4.70
2023-01-31T01:51:09.992Z,8.00
2023-01-31T01:53:36.913Z,7.53
2023-01-31T01:56:03.657Z,8.23
2023-01-31T01:58:30.318Z,5.97
2023-01-31T02:00:57.031Z,6.13
2023-01-31T02:03:23.526Z,8.18
2023-01-31T02:05:50.095Z,6.22
2023-01-31T02:08:16.981Z,7.18
2023-01-31T02:10:43.381Z,6.13
2023-01-31T02:13:09.868Z,5.32
2023-01-31T02:15:36.199Z,5.38
2023-01-31T02:18:03.742Z,6.57
2023-01-31T02:20:30.239Z,5.35
2023-01-31T02:22:56.590Z,6.53
2023-01-31T02:25:23.009Z,7.20
2023-01-31T02:27:49.363Z,6.00
2023-01-31T02:30:15.719Z,7.88
2023-01-31T02:32:42.367Z,4.68
2023-01-31T02:35:08.737Z,5.43
2023-01-31T02:37:35.094Z,8.13
2023-01-31T02:40:01.494Z,7.82
2023-01-31T02:42:28.025Z,8.80
2023-01-31T02:44:54.510Z,5.90
2023-01-31T02:47:21.240Z,6.63
2023-01-31T02:49:47.910Z,7.03
2023-01-31T02:52:14.445Z,6.43
2023-01-31T02:54:40.815Z,6.57
2023-01-31T02:57:07.512Z,5.68
2023-01-31T02:59:34.075Z,4.90
2023-01-31T03:02:00.541Z,6.45
2023-01-31T03:04:27.244Z,7.53
2023-01-31T03:06:53.709Z,6.60
2023-01-31T03:09:20.904Z,6.97
2023-01-31T03:11:47.514Z,5.13
2023-01-31T03:14:14.064Z,6.50
2023-01-31T03:16:40.828Z,8.25
2023-01-31T03:19:08.301Z,5.25
2023-01-31T03:21:35.338Z,6.45
2023-01-31T03:24:02.131Z,7.38
2023-01-31T03:26:28.643Z,6.30
2023-01-31T03:28:55.278Z,6.30
2023-01-31T03:31:21.842Z,5.93
2023-01-31T03:33:49.395Z,4.38
2023-01-31T03:36:15.881Z,5.60
2023-01-31T03:38:42.333Z,6.13
2023-01-31T03:41:09.474Z,5.28
2023-01-31T03:43:36.169Z,6.93
2023-01-31T03:46:02.839Z,6.68
2023-01-31T03:48:29.566Z,6.22
2023-01-31T03:50:55.965Z,5.88
2023-01-31T03:53:22.429Z,4.88
2023-01-31T03:55:48.958Z,5.25
2023-01-31T03:58:15.716Z,5.88
2023-01-31T04:00:42.365Z,5.70
2023-01-31T04:03:09.504Z,5.90
2023-01-31T04:05:36.091Z,5.53
2023-01-31T04:08:02.714Z,4.97
2023-01-31T04:10:29.513Z,6.60
2023-01-31T04:12:56.091Z,5.43
2023-01-31T04:15:23.051Z,7.55
2023-01-31T04:17:49.767Z,5.93
2023-01-31T04:20:16.475Z,4.93
2023-01-31T04:22:43.244Z,6.32
2023-01-31T04:25:10.280Z,5.47
2023-01-31T04:27:37.146Z,6.90
2023-01-31T04:30:03.577Z,4.65
2023-01-31T04:32:30.085Z,5.65
2023-01-31T04:34:57.210Z,4.22
2023-01-31T04:37:23.947Z,4.10
2023-01-31T04:39:50.378Z,7.43
2023-01-31T04:42:17.068Z,6.05
2023-01-31T04:44:43.760Z,6.00
2023-01-31T04:47:10.155Z,6.72
2023-01-31T04:49:36.640Z,5.88
2023-01-31T04:52:03.649Z,6.97
2023-01-31T04:54:30.141Z,6.20
2023-01-31T04:56:56.623Z,5.57
2023-01-31T04:59:24.031Z,5.28
2023-01-31T05:01:50.489Z,6.50
2023-01-31T05:04:17.479Z,7.18
2023-01-31T05:06:44.201Z,5.53
2023-01-31T05:09:10.817Z,6.68
2023-01-31T05:11:38.042Z,5.60
2023-01-31T05:14:04.827Z,5.07
2023-01-31T05:16:31.687Z,4.75
2023-01-31T05:18:58.077Z,6.60
2023-01-31T05:21:24.571Z,5.88
2023-01-31T05:23:51.042Z,4.03
2023-01-31T05:26:17.892Z,3.47
2023-01-31T05:28:44.382Z,5.38
2023-01-31T05:31:11.898Z,5.43
2023-01-31T05:33:38.396Z,5.78
2023-01-31T05:36:06.062Z,3.53
2023-01-31T05:38:32.525Z,5.22
2023-01-31T05:40:59.382Z,5.32
2023-01-31T05:43:26.250Z,6.25
2023-01-31T05:45:52.696Z,4.18
2023-01-31T05:48:19.164Z,7.05
2023-01-31T05:50:45.814Z,5.57
2023-01-31T05:53:12.381Z,4.50
2023-01-31T05:55:41.189Z,5.57
2023-01-31T05:58:08.432Z,6.65
2023-01-31T06:00:35.419Z,6.70
2023-01-31T06:03:02.341Z,5.97
2023-01-31T06:05:29.471Z,3.70
2023-01-31T06:07:56.108Z,4.80
2023-01-31T06:10:22.729Z,4.53
2023-01-31T06:12:49.461Z,3.53
2023-01-31T06:15:15.852Z,4.07
2023-01-31T06:17:42.444Z,5.15
2023-01-31T06:20:09.202Z,5.00
2023-01-31T06:22:36.439Z,3.95
2023-01-31T06:25:03.524Z,6.25
2023-01-31T06:27:30.534Z,4.45
2023-01-31T06:29:57.103Z,4.25
2023-01-31T06:32:23.773Z,6.50
2023-01-31T06:34:50.234Z,5.18
2023-01-31T06:37:17.043Z,4.70
2023-01-31T06:39:43.755Z,4.78
2023-01-31T06:42:10.707Z,4.90
2023-01-31T06:44:38.113Z,5.85
2023-01-31T06:47:04.626Z,5.05
2023-01-31T06:49:32.674Z,7.18
2023-01-31T06:51:59.480Z,8.10
2023-01-31T06:54:26.306Z,6.70
2023-01-31T06:56:52.863Z,5.57
2023-01-31T06:59:19.346Z,6.22
2023-01-31T07:01:46.418Z,6.53
2023-01-31T07:04:13.507Z,4.85
2023-01-31T07:06:39.909Z,5.85
2023-01-31T07:09:06.309Z,9.27
2023-01-31T07:11:33.315Z,6.43
2023-01-31T07:13:59.757Z,7.40
2023-01-31T07:16:26.420Z,7.68
2023-01-31T07:18:53.872Z,5.82
2023-01-31T07:21:20.302Z,8.32
2023-01-31T07:23:46.732Z,9.88
2023-01-31T07:26:13.221Z,10.57
2023-01-31T07:28:40.276Z,9.88
2023-01-31T07:31:06.816Z,10.27
2023-01-31T07:33:33.861Z,12.57
2023-01-31T07:36:00.357Z,12.07
2023-01-31T07:38:26.740Z,12.02
2023-01-31T07:40:53.589Z,10.10
2023-01-31T07:43:20.088Z,12.02
2023-01-31T07:45:46.647Z,11.70
2023-01-31T07:48:13.787Z,13.30
2023-01-31T07:50:40.474Z,13.57
2023-01-31T07:53:07.032Z,13.80
2023-01-31T07:55:33.531Z,15.40
2023-01-31T07:58:00.184Z,12.40
2023-01-31T08:00:26.875Z,12.02
2023-01-31T08:02:53.539Z,24.42
2023-01-31T08:05:20.531Z,13.80
